createdAt,value
2022-09-17T00:00:38.997Z,100.00
2022-09-17T00:03:05.489Z,100.00
2022-09-17T00:05:31.960Z,100.00
2022-09-17T00:07:58.323Z,100.00
2022-09-17T00:10:24.787Z,100.00
2022-09-17T00:12:51.434Z,100.00
2022-09-17T00:15:18.100Z,100.00
2022-09-17T00:17:44.527Z,100.00
2022-09-17T00:20:10.967Z,100.00
2022-09-17T00:22:38.268Z,100.00
2022-09-17T00:25:05.384Z,100.00
2022-09-17T00:27:31.775Z,100.00
2022-09-17T00:29:58.403Z,100.00
2022-09-17T00:32:24.800Z,100.00
2022-09-17T00:34:52.197Z,100.00
2022-09-17T00:37:19.482Z,100.00
2022-09-17T00:39:45.847Z,100.00
2022-09-17T00:42:12.874Z,100.00
2022-09-17T00:44:42.043Z,100.00
2022-09-17T00:47:15.840Z,100.00
2022-09-17T00:49:42.235Z,100.00
2022-09-17T00:52:10.815Z,100.00
2022-09-17T00:54:38.556Z,100.00
2022-09-17T00:57:05.041Z,100.00
2022-09-17T00:59:31.423Z,100.00
2022-09-17T01:01:58.500Z,100.00
2022-09-17T01:04:26.001Z,100.00
2022-09-17T01:07:54.169Z,100.00
2022-09-17T01:10:31.624Z,100.00
2022-09-17T01:13:30.148Z,100.00
2022-09-17T01:16:09.974Z,100.00
2022-09-17T01:19:04.728Z,100.00
2022-09-17T01:21:43.176Z,100.00
2022-09-17T01:24:22.169Z,100.00
2022-09-17T01:26:48.887Z,100.00
2022-09-17T01:29:44.331Z,100.00
2022-09-17T01:32:31.061Z,100.00
2022-09-17T01:35:00.520Z,100.00
2022-09-17T01:37:50.132Z,100.00
2022-09-17T01:40:48.246Z,100.00
2022-09-17T01:43:33.752Z,100.00
2022-09-17T01:46:04.703Z,100.00
2022-09-17T01:48:33.836Z,100.00
2022-09-17T01:51:07.831Z,100.00
2022-09-17T01:53:46.108Z,100.00
2022-09-17T01:56:14.846Z,100.00
2022-09-17T01:58:44.501Z,100.00
2022-09-17T02:01:10.937Z,100.00
2022-09-17T02:03:41.374Z,100.00
2022-09-17T02:06:12.204Z,100.00
2022-09-17T02:08:43.115Z,100.00
2022-09-17T02:11:15.116Z,100.00
2022-09-17T02:13:45.173Z,100.00
2022-09-17T02:16:16.880Z,100.00
2022-09-17T02:18:50.673Z,100.00
2022-09-17T02:21:26.399Z,100.00
2022-09-17T02:24:00.352Z,100.00
2022-09-17T02:26:26.782Z,100.00
2022-09-17T02:29:02.648Z,100.00
2022-09-17T02:31:29.250Z,100.00
2022-09-17T02:33:57.424Z,100.00
2022-09-17T02:36:25.011Z,100.00
2022-09-17T02:38:55.428Z,100.00
2022-09-17T02:41:23.516Z,100.00
2022-09-17T02:44:04.641Z,100.00
2022-09-17T02:46:36.499Z,100.00
2022-09-17T02:49:20.047Z,100.00
2022-09-17T02:52:11.351Z,100.00
2022-09-17T02:55:16.674Z,100.00
2022-09-17T02:58:03.307Z,100.00
2022-09-17T03:00:29.776Z,100.00
2022-09-17T03:03:02.029Z,100.00
2022-09-17T03:05:28.740Z,100.00
2022-09-17T03:07:56.796Z,100.00
2022-09-17T03:10:23.439Z,100.00
2022-09-17T03:12:49.863Z,100.00
2022-09-17T03:15:16.355Z,100.00
2022-09-17T03:17:42.742Z,100.00
2022-09-17T03:20:09.656Z,100.00
2022-09-17T03:22:36.098Z,100.00
2022-09-17T03:25:02.483Z,100.00
2022-09-17T03:27:28.886Z,100.00
2022-09-17T03:29:55.264Z,100.00
2022-09-17T03:32:21.646Z,100.00
2022-09-17T03:34:48.077Z,100.00
2022-09-17T03:37:14.453Z,100.00
2022-09-17T03:39:40.844Z,100.00
2022-09-17T03:42:07.252Z,100.00
2022-09-17T03:44:33.651Z,100.00
2022-09-17T03:47:00.023Z,100.00
2022-09-17T03:49:26.465Z,100.00
2022-09-17T03:51:52.859Z,100.00
2022-09-17T03:54:19.283Z,100.00
2022-09-17T03:56:45.676Z,100.00
2022-09-17T03:59:12.060Z,100.00
2022-09-17T04:01:38.805Z,100.00
2022-09-17T04:04:05.296Z,100.00
2022-09-17T04:06:31.710Z,100.00
2022-09-17T04:08:58.078Z,100.00
2022-09-17T04:11:24.481Z,100.00
2022-09-17T04:13:50.879Z,100.00
2022-09-17T04:16:17.402Z,100.00
2022-09-17T04:18:43.817Z,100.00
2022-09-17T04:21:10.246Z,100.00
2022-09-17T04:23:36.616Z,100.00
2022-09-17T04:26:05.889Z,100.00
2022-09-17T04:28:32.473Z,100.00
2022-09-17T04:30:58.953Z,100.00
2022-09-17T04:33:25.493Z,96.57
2022-09-17T04:35:52.342Z,96.54
2022-09-17T04:38:20.545Z,95.76
2022-09-17T04:40:47.021Z,91.75
2022-09-17T04:43:13.516Z,88.88
2022-09-17T04:45:39.897Z,80.52
2022-09-17T04:48:06.350Z,73.61
2022-09-17T04:50:32.777Z,69.00
2022-09-17T04:52:59.167Z,60.46
2022-09-17T04:55:26.416Z,59.37
2022-09-17T04:57:53.198Z,59.65
2022-09-17T05:00:20.326Z,60.74
2022-09-17T05:02:48.178Z,60.61
2022-09-17T05:05:14.844Z,60.17
2022-09-17T05:07:41.569Z,54.42
2022-09-17T05:10:08.978Z,53.23
2022-09-17T05:12:35.507Z,46.95
2022-09-17T05:15:02.201Z,43.44
2022-09-17T05:17:28.579Z,41.07
2022-09-17T05:19:54.965Z,39.68
2022-09-17T05:22:21.732Z,39.88
2022-09-17T05:24:48.195Z,37.84
2022-09-17T05:27:14.551Z,35.39
2022-09-17T05:29:40.938Z,34.36
2022-09-17T05:32:07.299Z,31.67
2022-09-17T05:34:33.994Z,33.47
2022-09-17T05:37:00.389Z,33.72
2022-09-17T05:39:26.771Z,36.55
2022-09-17T05:41:53.464Z,36.86
2022-09-17T05:44:19.995Z,34.81
2022-09-17T05:46:46.872Z,34.29
2022-09-17T05:49:15.063Z,36.11
2022-09-17T05:51:42.222Z,43.35
2022-09-17T05:54:09.111Z,52.41
2022-09-17T05:56:35.515Z,65.21
2022-09-17T05:59:01.946Z,72.39
2022-09-17T06:01:28.497Z,77.69
2022-09-17T06:03:55.415Z,85.22
2022-09-17T06:06:21.895Z,87.19
2022-09-17T06:08:48.276Z,84.10
2022-09-17T06:11:14.688Z,77.99
2022-09-17T06:13:43.453Z,70.96
2022-09-17T06:16:09.896Z,62.90
2022-09-17T06:18:36.443Z,60.56
2022-09-17T06:21:03.796Z,54.69
2022-09-17T06:23:36.194Z,62.48
2022-09-17T06:26:03.117Z,57.39
2022-09-17T06:28:29.658Z,46.58
2022-09-17T06:31:00.296Z,37.73
2022-09-17T06:33:26.839Z,27.73
2022-09-17T06:36:00.932Z,23.82
2022-09-17T06:38:31.698Z,20.90
2022-09-17T06:40:58.188Z,19.04
2022-09-17T06:43:24.724Z,17.89
2022-09-17T06:46:01.445Z,17.25
2022-09-17T06:48:28.964Z,15.89
2022-09-17T06:50:55.722Z,13.97
2022-09-17T06:53:22.826Z,14.02
2022-09-17T06:55:49.425Z,12.69
2022-09-17T06:58:15.880Z,12.74
2022-09-17T07:00:42.428Z,12.80
2022-09-17T07:03:08.973Z,10.20
2022-09-17T07:05:35.373Z,9.40
2022-09-17T07:08:05.248Z,8.82
2022-09-17T07:10:31.773Z,8.63
2022-09-17T07:12:59.125Z,6.56
2022-09-17T07:15:25.535Z,6.45
2022-09-17T07:17:51.908Z,5.04
2022-09-17T07:20:18.433Z,3.53
2022-09-17T07:22:44.944Z,1.09
2022-09-17T07:25:11.562Z,0.00
2022-09-17T07:27:37.979Z,0.00
2022-09-17T07:30:05.153Z,0.00
2022-09-17T07:32:31.647Z,0.00
2022-09-17T07:34:58.047Z,0.00
2022-09-17T07:37:25.652Z,0.00
2022-09-17T07:39:52.139Z,0.00
2022-09-17T07:42:18.560Z,0.00
2022-09-17T07:44:46.623Z,0.00
2022-09-17T07:47:12.974Z,0.00
2022-09-17T07:49:39.531Z,0.00
2022-09-17T07:52:06.426Z,0.00
2022-09-17T07:54:37.339Z,0.00
2022-09-17T07:57:04.091Z,0.00
2022-09-17T07:59:30.486Z,0.00
2022-09-17T08:01:56.949Z,0.00
2022-09-17T08:04:23.430Z,0.00
2022-09-17T08:06:49.827Z,2.44
2022-09-17T08:09:16.750Z,39.30
2022-09-17T08:11:58.572Z,45.36
2022-09-17T08:14:29.420Z,44.25
2022-09-17T08:16:56.451Z,48.77
2022-09-17T08:19:22.813Z,45.49
2022-09-17T08:21:49.195Z,41.47
2022-09-17T08:24:15.592Z,44.14
2022-09-17T08:26:42.042Z,44.07
2022-09-17T08:29:08.513Z,43.46
2022-09-17T08:31:35.057Z,46.66
2022-09-17T08:34:01.505Z,47.02
2022-09-17T08:36:28.581Z,49.29
2022-09-17T08:38:55.298Z,54.58
2022-09-17T08:41:24.883Z,60.26
2022-09-17T08:44:12.627Z,66.19
2022-09-17T08:46:49.275Z,74.15
2022-09-17T08:49:30.899Z,70.89
2022-09-17T08:52:19.174Z,81.94
2022-09-17T08:54:55.059Z,82.04
2022-09-17T08:57:47.955Z,87.59
2022-09-17T09:00:17.565Z,93.39
2022-09-17T09:03:03.215Z,99.06
2022-09-17T09:05:47.527Z,100.00
2022-09-17T09:08:15.636Z,100.00
2022-09-17T09:10:46.651Z,100.00
2022-09-17T09:13:14.680Z,100.00
2022-09-17T09:15:46.193Z,100.00
2022-09-17T09:18:22.494Z,100.00
2022-09-17T09:20:55.425Z,100.00
2022-09-17T09:23:29.526Z,100.00
2022-09-17T09:26:04.322Z,100.00
2022-09-17T09:28:39.564Z,100.00
2022-09-17T09:31:18.694Z,100.00
2022-09-17T09:33:47.840Z,100.00
2022-09-17T09:36:15.600Z,100.00
2022-09-17T09:38:56.555Z,100.00
2022-09-17T09:41:26.054Z,100.00
2022-09-17T09:44:09.154Z,100.00
2022-09-17T09:46:53.871Z,100.00
2022-09-17T09:49:38.661Z,100.00
2022-09-17T09:52:20.342Z,100.00
2022-09-17T09:54:55.845Z,100.00
2022-09-17T09:57:35.186Z,100.00
2022-09-17T10:00:26.835Z,100.00
2022-09-17T10:02:55.600Z,100.00
2022-09-17T10:05:22.022Z,100.00
2022-09-17T10:07:48.383Z,100.00
2022-09-17T10:10:14.779Z,100.00
2022-09-17T10:12:41.159Z,100.00
2022-09-17T10:15:28.222Z,100.00
2022-09-17T10:18:26.013Z,100.00
2022-09-17T10:20:59.776Z,100.00
2022-09-17T10:23:28.071Z,100.00
2022-09-17T10:25:55.731Z,100.00
2022-09-17T10:28:34.062Z,100.00
2022-09-17T10:31:08.881Z,100.00
2022-09-17T10:33:36.899Z,100.00
2022-09-17T10:36:06.291Z,100.00
2022-09-17T10:38:43.459Z,100.00
2022-09-17T10:41:13.351Z,100.00
2022-09-17T10:43:39.999Z,100.00
2022-09-17T10:46:06.403Z,100.00
2022-09-17T10:48:34.277Z,100.00
2022-09-17T10:51:03.032Z,100.00
2022-09-17T10:53:29.455Z,100.00
2022-09-17T10:56:02.748Z,100.00
2022-09-17T10:59:01.526Z,100.00
2022-09-17T11:01:32.777Z,100.00
2022-09-17T11:04:43.763Z,100.00
2022-09-17T11:07:16.723Z,100.00
2022-09-17T11:10:04.514Z,100.00
2022-09-17T11:12:30.907Z,100.00
2022-09-17T11:15:00.285Z,100.00
2022-09-17T11:17:46.786Z,100.00
2022-09-17T11:20:45.973Z,100.00
2022-09-17T11:23:31.745Z,100.00
2022-09-17T11:26:08.333Z,100.00
2022-09-17T11:29:00.203Z,100.00
2022-09-17T11:31:55.115Z,100.00
2022-09-17T11:34:41.838Z,100.00
2022-09-17T11:37:23.612Z,100.00
2022-09-17T11:39:55.036Z,100.00
2022-09-17T11:42:25.801Z,100.00
2022-09-17T11:44:58.320Z,100.00
2022-09-17T11:47:34.101Z,100.00
2022-09-17T11:50:09.318Z,100.00
2022-09-17T11:52:37.965Z,100.00
2022-09-17T11:55:22.015Z,100.00
2022-09-17T11:57:49.496Z,100.00
2022-09-17T12:00:17.872Z,100.00
2022-09-17T12:03:18.256Z,100.00
2022-09-17T12:05:55.980Z,100.00
2022-09-17T12:08:43.460Z,26.66
2022-09-17T12:11:21.282Z,0.00
2022-09-17T12:13:52.852Z,0.00
2022-09-17T12:16:36.633Z,0.00
2022-09-17T12:19:12.047Z,0.00
2022-09-17T12:21:49.560Z,0.00
2022-09-17T12:24:25.664Z,0.00
2022-09-17T12:27:07.502Z,0.00
2022-09-17T12:29:45.831Z,0.00
2022-09-17T12:32:29.974Z,0.00
2022-09-17T12:35:06.948Z,0.00
2022-09-17T12:37:49.226Z,0.00
2022-09-17T12:40:21.155Z,0.00
2022-09-17T12:43:02.914Z,0.00
2022-09-17T12:46:14.466Z,0.00
2022-09-17T12:49:12.878Z,0.00
2022-09-17T12:52:02.075Z,10.85
2022-09-17T12:54:57.638Z,16.13
2022-09-17T12:57:30.144Z,19.70
2022-09-17T13:00:10.201Z,19.26
2022-09-17T13:02:41.285Z,31.37
2022-09-17T13:05:42.920Z,43.50
2022-09-17T13:08:40.087Z,43.96
2022-09-17T13:11:11.703Z,48.51
2022-09-17T13:13:50.411Z,39.19
2022-09-17T13:16:29.255Z,30.17
2022-09-17T13:19:20.706Z,30.63
2022-09-17T13:21:55.676Z,17.37
2022-09-17T13:24:25.100Z,19.08
2022-09-17T13:26:54.608Z,16.79
2022-09-17T13:29:48.934Z,24.96
2022-09-17T13:32:36.799Z,29.71
2022-09-17T13:35:12.189Z,37.42
2022-09-17T13:37:58.989Z,46.13
2022-09-17T13:40:29.431Z,51.47
2022-09-17T13:42:59.386Z,62.02
2022-09-17T13:45:25.959Z,87.38
2022-09-17T13:48:03.071Z,94.82
2022-09-17T13:50:35.618Z,100.00
2022-09-17T13:53:17.093Z,100.00
2022-09-17T13:55:43.512Z,100.00
2022-09-17T13:58:22.054Z,100.00
2022-09-17T14:01:11.839Z,100.00
2022-09-17T14:03:41.899Z,100.00
2022-09-17T14:06:08.581Z,100.00
2022-09-17T14:08:43.713Z,100.00
2022-09-17T14:11:22.317Z,100.00
2022-09-17T14:14:11.731Z,100.00
2022-09-17T14:16:45.960Z,100.00
2022-09-17T14:19:15.429Z,100.00
2022-09-17T14:22:03.366Z,100.00
2022-09-17T14:24:46.806Z,100.00
2022-09-17T14:27:22.422Z,100.00
2022-09-17T14:30:04.266Z,100.00
2022-09-17T14:32:42.830Z,100.00
2022-09-17T14:35:20.307Z,100.00
2022-09-17T14:37:50.320Z,100.00
2022-09-17T14:40:18.614Z,100.00
2022-09-17T14:42:45.063Z,100.00
2022-09-17T14:45:16.375Z,100.00
2022-09-17T14:47:42.762Z,100.00
2022-09-17T14:50:22.256Z,100.00
2022-09-17T14:52:49.975Z,100.00
2022-09-17T14:55:24.087Z,100.00
2022-09-17T14:57:55.038Z,100.00
2022-09-17T15:00:26.049Z,100.00
2022-09-17T15:02:55.571Z,100.00
2022-09-17T15:05:28.054Z,100.00
2022-09-17T15:08:09.817Z,100.00
2022-09-17T15:10:44.787Z,100.00
2022-09-17T15:13:16.037Z,100.00
2022-09-17T15:15:51.706Z,100.00
2022-09-17T15:18:18.157Z,100.00
2022-09-17T15:20:45.942Z,100.00
2022-09-17T15:23:14.974Z,100.00
2022-09-17T15:25:41.395Z,100.00
2022-09-17T15:28:38.447Z,100.00
2022-09-17T15:31:06.002Z,100.00
2022-09-17T15:33:32.810Z,100.00
2022-09-17T15:36:15.388Z,100.00
2022-09-17T15:38:42.776Z,100.00
2022-09-17T15:41:15.647Z,100.00
2022-09-17T15:43:44.489Z,100.00
2022-09-17T15:46:28.802Z,100.00
2022-09-17T15:48:59.907Z,100.00
2022-09-17T15:51:34.264Z,100.00
2022-09-17T15:54:05.421Z,100.00
2022-09-17T15:56:33.428Z,100.00
2022-09-17T15:59:00.840Z,100.00
2022-09-17T16:01:31.020Z,100.00
2022-09-17T16:04:06.226Z,100.00
2022-09-17T16:06:33.263Z,100.00
2022-09-17T16:09:03.674Z,100.00
2022-09-17T16:11:31.137Z,100.00
2022-09-17T16:13:59.176Z,100.00
2022-09-17T16:16:35.242Z,100.00
2022-09-17T16:19:01.927Z,100.00
2022-09-17T16:21:29.043Z,100.00
2022-09-17T16:23:55.482Z,100.00
2022-09-17T16:26:23.403Z,100.00
2022-09-17T16:28:55.794Z,100.00
2022-09-17T16:31:22.234Z,100.00
2022-09-17T16:33:48.645Z,100.00
2022-09-17T16:36:18.123Z,100.00
2022-09-17T16:38:44.552Z,100.00
2022-09-17T16:41:11.104Z,100.00
2022-09-17T16:43:38.325Z,100.00
2022-09-17T16:46:06.792Z,100.00
2022-09-17T16:48:33.450Z,100.00
2022-09-17T16:51:01.510Z,100.00
2022-09-17T16:53:27.955Z,100.00
2022-09-17T16:55:54.368Z,100.00
2022-09-17T16:58:20.800Z,100.00
2022-09-17T17:00:47.296Z,100.00
2022-09-17T17:03:14.773Z,100.00
2022-09-17T17:05:41.240Z,100.00
2022-09-17T17:08:08.784Z,100.00
2022-09-17T17:10:35.400Z,100.00
2022-09-17T17:13:01.794Z,100.00
2022-09-17T17:15:28.186Z,100.00
2022-09-17T17:17:54.580Z,100.00
2022-09-17T17:20:20.965Z,100.00
2022-09-17T17:22:47.464Z,100.00
2022-09-17T17:25:14.219Z,100.00
2022-09-17T17:27:40.799Z,100.00
2022-09-17T17:30:08.474Z,100.00
2022-09-17T17:32:35.788Z,100.00
2022-09-17T17:35:02.534Z,100.00
2022-09-17T17:37:29.036Z,100.00
2022-09-17T17:39:55.507Z,100.00
2022-09-17T17:42:21.941Z,100.00
2022-09-17T17:44:48.414Z,100.00
2022-09-17T17:47:14.845Z,100.00
2022-09-17T17:49:41.204Z,100.00
2022-09-17T17:52:07.555Z,100.00
2022-09-17T17:54:33.988Z,100.00
2022-09-17T17:57:00.394Z,100.00
2022-09-17T17:59:26.810Z,100.00
2022-09-17T18:01:53.255Z,100.00
2022-09-17T18:04:19.760Z,100.00
2022-09-17T18:06:48.049Z,100.00
2022-09-17T18:09:14.710Z,100.00
2022-09-17T18:11:41.116Z,100.00
2022-09-17T18:14:09.378Z,100.00
2022-09-17T18:16:35.854Z,100.00
2022-09-17T18:19:02.662Z,100.00
2022-09-17T18:21:29.059Z,100.00
2022-09-17T18:23:55.459Z,100.00
2022-09-17T18:26:23.379Z,100.00
2022-09-17T18:28:50.172Z,100.00
2022-09-17T18:31:30.207Z,100.00
2022-09-17T18:34:12.628Z,100.00
2022-09-17T18:36:39.615Z,100.00
2022-09-17T18:39:33.153Z,100.00
2022-09-17T18:41:54.360Z,100.00
2022-09-17T18:44:21.845Z,100.00
2022-09-17T18:46:49.894Z,100.00
2022-09-17T18:49:16.366Z,100.00
2022-09-17T18:51:42.732Z,100.00
2022-09-17T18:54:10.533Z,100.00
2022-09-17T18:56:37.223Z,100.00
2022-09-17T18:59:07.943Z,100.00
2022-09-17T19:01:34.989Z,100.00
2022-09-17T19:04:01.687Z,100.00
2022-09-17T19:06:28.431Z,100.00
2022-09-17T19:09:00.927Z,100.00
2022-09-17T19:11:27.494Z,100.00
2022-09-17T19:13:54.091Z,100.00
2022-09-17T19:16:20.547Z,100.00
2022-09-17T19:18:47.034Z,100.00
2022-09-17T19:21:14.996Z,100.00
2022-09-17T19:23:48.407Z,100.00
2022-09-17T19:26:19.443Z,100.00
2022-09-17T19:28:45.837Z,100.00
2022-09-17T19:31:14.019Z,100.00
2022-09-17T19:33:40.542Z,100.00
2022-09-17T19:36:08.620Z,100.00
2022-09-17T19:38:35.006Z,100.00
2022-09-17T19:41:04.104Z,100.00
2022-09-17T19:43:30.660Z,100.00
2022-09-17T19:46:21.163Z,100.00
2022-09-17T19:48:55.045Z,100.00
2022-09-17T19:51:22.910Z,100.00
2022-09-17T19:53:49.431Z,100.00
2022-09-17T19:56:17.410Z,100.00
2022-09-17T19:58:43.835Z,100.00
2022-09-17T20:01:10.665Z,100.00
2022-09-17T20:03:40.807Z,100.00
2022-09-17T20:06:08.567Z,100.00
2022-09-17T20:08:40.842Z,100.00
2022-09-17T20:11:08.971Z,100.00
2022-09-17T20:13:35.502Z,100.00
2022-09-17T20:16:06.191Z,100.00
2022-09-17T20:18:32.747Z,100.00
2022-09-17T20:20:59.115Z,100.00
2022-09-17T20:23:30.660Z,100.00
2022-09-17T20:25:57.064Z,100.00
2022-09-17T20:28:23.533Z,100.00
2022-09-17T20:30:49.994Z,100.00
2022-09-17T20:33:18.932Z,100.00
2022-09-17T20:35:47.441Z,100.00
2022-09-17T20:41:04.180Z,100.00
2022-09-17T20:43:38.026Z,100.00
2022-09-17T20:46:05.119Z,100.00
2022-09-17T20:48:31.837Z,100.00
2022-09-17T20:51:03.214Z,100.00
2022-09-17T20:53:30.385Z,100.00
2022-09-17T20:56:00.784Z,100.00
2022-09-17T20:58:30.913Z,100.00
2022-09-17T21:01:13.532Z,100.00
2022-09-17T21:03:40.921Z,100.00
2022-09-17T21:06:07.465Z,100.00
2022-09-17T21:08:33.846Z,100.00
2022-09-17T21:11:04.413Z,100.00
2022-09-17T21:13:30.782Z,100.00
2022-09-17T21:15:58.214Z,100.00
2022-09-17T21:18:25.028Z,100.00
2022-09-17T21:20:51.504Z,100.00
2022-09-17T21:23:25.612Z,100.00
2022-09-17T21:25:52.085Z,100.00
2022-09-17T21:28:21.814Z,100.00
2022-09-17T21:30:48.284Z,100.00
2022-09-17T21:33:21.922Z,100.00
2022-09-17T21:35:51.344Z,100.00
2022-09-17T21:38:20.155Z,100.00
2022-09-17T21:40:59.931Z,100.00
2022-09-17T21:43:26.587Z,100.00
2022-09-17T21:46:04.413Z,100.00
2022-09-17T21:48:31.231Z,100.00
2022-09-17T21:51:08.669Z,100.00
2022-09-17T21:53:35.112Z,100.00
2022-09-17T21:56:11.744Z,100.00
2022-09-17T21:58:38.431Z,100.00
2022-09-17T22:01:09.613Z,100.00
2022-09-17T22:03:36.074Z,100.00
2022-09-17T22:06:06.689Z,100.00
2022-09-17T22:08:33.400Z,100.00
2022-09-17T22:11:10.345Z,100.00
2022-09-17T22:13:37.100Z,100.00
2022-09-17T22:16:04.935Z,100.00
2022-09-17T22:18:32.193Z,100.00
2022-09-17T22:20:59.120Z,100.00
2022-09-17T22:23:26.353Z,100.00
2022-09-17T22:26:05.460Z,100.00
2022-09-17T22:28:31.906Z,100.00
2022-09-17T22:31:01.384Z,100.00
2022-09-17T22:33:31.725Z,100.00
2022-09-17T22:36:02.822Z,100.00
2022-09-17T22:38:29.273Z,100.00
2022-09-17T22:40:55.659Z,100.00
2022-09-17T22:43:22.088Z,95.34
2022-09-17T22:45:48.458Z,86.06
2022-09-17T22:48:14.840Z,74.59
2022-09-17T22:50:41.203Z,78.25
2022-09-17T22:53:07.591Z,74.86
2022-09-17T22:55:35.457Z,73.09
2022-09-17T22:58:01.848Z,75.03
2022-09-17T23:00:28.392Z,70.62
2022-09-17T23:02:54.914Z,79.37
2022-09-17T23:05:21.332Z,77.89
2022-09-17T23:07:47.764Z,80.79
2022-09-17T23:10:14.146Z,87.45
2022-09-17T23:12:40.513Z,87.87
2022-09-17T23:15:07.414Z,83.65
2022-09-17T23:17:36.621Z,75.16
2022-09-17T23:20:03.745Z,73.93
2022-09-17T23:22:30.177Z,71.36
2022-09-17T23:24:56.550Z,70.91
2022-09-17T23:27:22.936Z,76.39
2022-09-17T23:29:49.311Z,80.85
2022-09-17T23:32:15.682Z,85.15
2022-09-17T23:34:42.085Z,86.89
2022-09-17T23:37:08.467Z,90.47
2022-09-17T23:39:34.845Z,95.68
2022-09-17T23:42:01.230Z,99.34
2022-09-17T23:44:27.672Z,100.00
2022-09-17T23:46:54.137Z,100.00
2022-09-17T23:49:20.525Z,100.00
2022-09-17T23:51:46.922Z,100.00
2022-09-17T23:54:13.349Z,100.00
2022-09-17T23:56:39.848Z,100.00
2022-09-17T23:59:07.323Z,100.00
